createdAt,value
2023-03-05T00:00:20.536Z,100530.83
2023-03-05T00:05:27.774Z,100526.58
2023-03-05T00:10:35.044Z,100522.63
2023-03-05T00:15:44.823Z,100519.21
2023-03-05T00:20:52.459Z,100514.45
2023-03-05T00:25:57.946Z,100507.88
2023-03-05T00:31:05.957Z,100499.31
2023-03-05T00:36:14.011Z,100500.96
2023-03-05T00:41:21.168Z,100495.23
2023-03-05T00:46:28.828Z,100489.08
2023-03-05T00:51:36.228Z,100484.02
2023-03-05T00:56:43.446Z,100480.92
2023-03-05T01:01:50.655Z,100475.67
2023-03-05T01:06:57.858Z,100471.13
2023-03-05T01:12:05.047Z,100465.52
2023-03-05T01:17:12.226Z,100458.19
2023-03-05T01:22:19.343Z,100455.85
2023-03-05T01:27:26.709Z,100454.30
2023-03-05T01:32:34.854Z,100450.97
2023-03-05T01:37:42.944Z,100443.39
2023-03-05T01:42:56.666Z,100435.08
2023-03-05T01:48:03.841Z,100430.12
2023-03-05T01:53:11.309Z,100425.79
2023-03-05T01:58:18.706Z,100421.86
2023-03-05T02:03:27.496Z,100420.36
2023-03-05T02:08:34.630Z,100415.19
2023-03-05T02:13:42.153Z,100409.92
2023-03-05T02:18:47.846Z,100403.64
2023-03-05T02:23:54.955Z,100394.41
2023-03-05T02:29:06.325Z,100391.09
2023-03-05T02:34:13.411Z,100389.64
2023-03-05T02:39:21.175Z,100380.93
2023-03-05T02:44:28.479Z,100370.55
2023-03-05T02:49:35.847Z,100364.83
2023-03-05T02:54:44.141Z,100357.95
2023-03-05T02:59:51.374Z,100349.23
2023-03-05T03:04:59.040Z,100344.86
2023-03-05T03:10:07.557Z,100334.65
2023-03-05T03:15:18.742Z,100318.27
2023-03-05T03:20:26.091Z,100306.23
2023-03-05T03:25:33.506Z,100310.96
2023-03-05T03:30:40.700Z,100302.64
2023-03-05T03:35:48.610Z,100317.27
2023-03-05T03:40:55.775Z,100314.12
2023-03-05T03:46:04.654Z,100306.13
2023-03-05T03:51:11.811Z,100297.17
2023-03-05T03:56:18.960Z,100285.52
2023-03-05T04:01:26.261Z,100271.05
2023-03-05T04:06:34.052Z,100263.69
2023-03-05T04:11:41.289Z,100255.94
2023-03-05T04:16:48.445Z,100249.04
2023-03-05T04:21:55.539Z,100237.61
2023-03-05T04:27:02.800Z,100233.76
2023-03-05T04:32:10.554Z,100240.15
2023-03-05T04:37:16.011Z,100244.92
2023-03-05T04:42:23.189Z,100240.42
2023-03-05T04:47:30.368Z,100234.86
2023-03-05T04:52:39.200Z,100227.98
2023-03-05T04:57:46.350Z,100223.73
2023-03-05T05:02:54.110Z,100214.45
2023-03-05T05:07:59.816Z,100210.67
2023-03-05T05:13:06.989Z,100212.36
2023-03-05T05:18:14.107Z,100207.46
2023-03-05T05:23:21.285Z,100206.24
2023-03-05T05:28:28.721Z,100206.69
2023-03-05T05:33:35.808Z,100206.63
2023-03-05T05:38:43.072Z,100206.52
2023-03-05T05:43:50.504Z,100202.84
2023-03-05T05:48:57.588Z,100209.10
2023-03-05T05:54:04.715Z,100211.66
2023-03-05T05:59:12.603Z,100211.48
2023-03-05T06:04:19.704Z,100205.73
2023-03-05T06:09:26.891Z,100202.90
2023-03-05T06:14:34.014Z,100200.27
2023-03-05T06:19:41.083Z,100203.52
2023-03-05T06:24:48.182Z,100200.60
2023-03-05T06:29:57.471Z,100197.45
2023-03-05T06:35:04.729Z,100194.13
2023-03-05T06:40:14.370Z,100192.41
2023-03-05T06:45:21.634Z,100195.22
2023-03-05T06:50:28.939Z,100197.46
2023-03-05T06:55:40.876Z,100196.90
2023-03-05T07:00:48.366Z,100194.42
2023-03-05T07:05:55.586Z,100192.09
2023-03-05T07:11:03.503Z,100193.91
2023-03-05T07:16:10.595Z,100186.70
2023-03-05T07:21:19.832Z,100190.41
2023-03-05T07:26:27.585Z,100193.91
2023-03-05T07:31:34.828Z,100191.88
2023-03-05T07:36:43.142Z,100185.17
2023-03-05T07:41:51.739Z,100187.00
2023-03-05T07:47:07.002Z,100188.20
2023-03-05T07:52:14.143Z,100183.88
2023-03-05T07:57:21.278Z,100183.59
2023-03-05T08:02:28.829Z,100180.58
2023-03-05T08:07:36.102Z,100180.13
2023-03-05T08:12:43.360Z,100171.24
2023-03-05T08:17:52.051Z,100167.79
2023-03-05T08:22:59.307Z,100163.35
2023-03-05T08:28:06.938Z,100161.07
2023-03-05T08:33:14.550Z,100153.98
2023-03-05T08:38:22.016Z,100148.43
2023-03-05T08:43:31.092Z,100143.00
2023-03-05T08:48:38.376Z,100140.66
2023-03-05T08:53:46.848Z,100131.67
2023-03-05T08:58:53.997Z,100126.65
2023-03-05T09:04:02.058Z,100119.72
2023-03-05T09:09:10.165Z,100111.31
2023-03-05T09:14:17.358Z,100107.27
2023-03-05T09:19:24.775Z,100104.00
2023-03-05T09:24:31.984Z,100103.89
2023-03-05T09:29:40.832Z,100103.87
2023-03-05T09:34:50.304Z,100099.55
2023-03-05T09:39:57.933Z,100096.91
2023-03-05T09:45:18.511Z,100093.38
2023-03-05T09:50:38.859Z,100096.36
2023-03-05T09:55:50.439Z,100089.91
2023-03-05T10:01:01.401Z,100087.86
2023-03-05T10:06:18.274Z,100087.09
2023-03-05T10:11:51.037Z,100089.74
2023-03-05T10:17:32.971Z,100086.80
2023-03-05T10:22:55.979Z,100084.75
2023-03-05T10:28:10.902Z,100084.52
2023-03-05T10:33:26.779Z,100080.56
2023-03-05T10:38:55.017Z,100077.09
2023-03-05T10:44:10.962Z,100076.64
2023-03-05T10:49:24.062Z,100074.36
2023-03-05T10:54:34.238Z,100074.05
2023-03-05T10:59:42.962Z,100072.30
2023-03-05T11:04:50.871Z,100074.93
2023-03-05T11:10:16.859Z,100075.50
2023-03-05T11:16:37.175Z,100072.59
2023-03-05T11:21:47.048Z,100070.98
2023-03-05T11:26:57.920Z,100069.74
2023-03-05T11:32:22.036Z,100069.84
2023-03-05T11:37:31.639Z,100065.03
2023-03-05T11:42:42.256Z,100060.28
2023-03-05T11:49:01.089Z,100057.67
2023-03-05T11:54:16.016Z,100050.84
2023-03-05T11:59:28.967Z,100049.98
2023-03-05T12:04:37.865Z,100049.42
2023-03-05T12:09:48.000Z,100044.90
2023-03-05T12:15:04.101Z,100037.13
2023-03-05T12:20:19.902Z,100032.28
2023-03-05T12:25:33.671Z,100027.55
2023-03-05T12:31:04.499Z,100018.55
2023-03-05T12:36:38.108Z,100010.11
2023-03-05T12:41:45.301Z,100009.48
2023-03-05T12:47:23.819Z,100002.84
2023-03-05T12:52:34.573Z,100001.59
2023-03-05T12:57:44.504Z,99999.20
2023-03-05T13:02:58.900Z,99993.98
2023-03-05T13:08:20.981Z,99992.85
2023-03-05T13:13:30.739Z,99993.64
2023-03-05T13:18:41.278Z,99993.92
2023-03-05T13:23:58.237Z,99996.33
2023-03-05T13:29:14.699Z,99996.77
2023-03-05T13:34:28.073Z,99995.17
2023-03-05T13:39:45.172Z,99988.92
2023-03-05T13:44:59.363Z,99988.35
2023-03-05T13:50:10.333Z,99989.92
2023-03-05T13:55:21.773Z,99982.38
2023-03-05T14:00:35.814Z,99984.52
2023-03-05T14:05:47.321Z,99981.88
2023-03-05T14:11:01.436Z,99972.55
2023-03-05T14:16:11.360Z,99972.92
2023-03-05T14:21:18.640Z,99971.99
2023-03-05T14:26:33.862Z,99991.70
2023-03-05T14:31:50.380Z,99996.05
2023-03-05T14:37:00.619Z,99998.22
2023-03-05T14:42:32.276Z,100002.56
2023-03-05T14:47:45.689Z,100005.77
2023-03-05T14:53:03.969Z,100000.86
2023-03-05T14:58:20.606Z,100003.27
2023-03-05T15:03:30.000Z,99996.92
2023-03-05T15:08:37.546Z,99994.75
2023-03-05T15:13:45.375Z,99988.71
2023-03-05T15:18:51.594Z,99991.05
2023-03-05T15:24:10.182Z,99991.45
2023-03-05T15:29:21.987Z,99986.89
2023-03-05T15:34:29.655Z,99983.23
2023-03-05T15:45:13.540Z,99980.36
2023-03-05T15:51:05.903Z,99973.52
2023-03-05T15:57:09.196Z,99972.46
2023-03-05T16:02:22.239Z,99965.74
2023-03-05T16:07:37.378Z,99963.38
2023-03-05T16:12:46.276Z,99962.88
2023-03-05T16:18:06.887Z,99962.89
2023-03-05T16:23:14.917Z,99964.53
2023-03-05T16:29:18.349Z,99962.27
2023-03-05T16:34:55.008Z,99959.39
2023-03-05T16:40:02.841Z,99961.01
2023-03-05T16:45:57.485Z,99962.10
2023-03-05T16:51:05.817Z,99968.83
2023-03-05T16:56:13.458Z,99974.27
2023-03-05T17:01:22.034Z,99976.52
2023-03-05T17:06:31.415Z,99976.86
2023-03-05T17:11:38.549Z,99978.44
2023-03-05T17:16:46.005Z,99976.37
2023-03-05T17:21:54.405Z,99975.09
2023-03-05T17:27:02.176Z,99974.59
2023-03-05T17:32:09.552Z,99970.27
2023-03-05T17:37:19.246Z,99969.40
2023-03-05T17:42:26.401Z,99969.05
2023-03-05T17:47:34.115Z,99969.64
2023-03-05T17:52:41.650Z,99966.01
2023-03-05T17:57:48.916Z,99963.02
2023-03-05T18:02:57.182Z,99965.06
2023-03-05T18:08:03.845Z,99963.91
2023-03-05T18:13:11.544Z,99962.96
2023-03-05T18:18:19.457Z,99960.02
2023-03-05T18:23:28.097Z,99963.30
2023-03-05T18:28:35.362Z,99964.54
2023-03-05T18:33:44.042Z,99964.00
2023-03-05T18:38:51.244Z,99961.46
2023-03-05T18:43:58.546Z,99963.11
2023-03-05T18:49:09.596Z,99964.41
2023-03-05T18:54:16.766Z,99968.67
2023-03-05T18:59:23.950Z,99969.36
2023-03-05T19:04:31.173Z,99971.33
2023-03-05T19:09:52.344Z,99974.23
2023-03-05T19:14:59.709Z,99970.79
2023-03-05T19:20:08.283Z,99973.95
2023-03-05T19:25:15.555Z,99971.54
2023-03-05T19:30:23.420Z,99969.77
2023-03-05T19:35:30.602Z,99967.45
2023-03-05T19:40:37.971Z,99966.05
2023-03-05T19:45:45.120Z,99969.34
2023-03-05T19:50:52.168Z,99972.66
2023-03-05T19:56:03.122Z,99965.97
2023-03-05T20:01:16.333Z,99963.15
2023-03-05T20:06:24.363Z,99964.36
2023-03-05T20:11:32.049Z,99966.29
2023-03-05T20:16:39.002Z,99967.41
2023-03-05T20:21:46.556Z,99967.45
2023-03-05T20:26:53.674Z,99967.96
2023-03-05T20:32:00.882Z,99967.17
2023-03-05T20:37:08.166Z,99965.04
2023-03-05T20:42:15.448Z,99964.06
2023-03-05T20:47:32.576Z,99959.15
2023-03-05T20:52:40.056Z,99960.19
2023-03-05T20:57:47.307Z,99955.15
2023-03-05T21:02:56.550Z,99957.08
2023-03-05T21:08:05.449Z,99953.34
2023-03-05T21:13:14.263Z,99953.33
2023-03-05T21:18:21.457Z,99949.46
2023-03-05T21:23:29.822Z,99945.66
2023-03-05T21:28:42.118Z,99942.55
2023-03-05T21:33:49.428Z,99939.46
2023-03-05T21:38:56.602Z,99932.24
2023-03-05T21:44:06.189Z,99926.26
2023-03-05T21:49:13.459Z,99927.40
2023-03-05T21:54:20.600Z,99926.44
2023-03-05T21:59:27.751Z,99925.08
2023-03-05T22:04:35.144Z,99920.45
2023-03-05T22:09:42.276Z,99921.62
2023-03-05T22:14:49.458Z,99919.74
2023-03-05T22:19:56.588Z,99918.39
2023-03-05T22:25:03.783Z,99913.86
2023-03-05T22:30:15.060Z,99909.06
2023-03-05T22:35:23.711Z,99904.48
2023-03-05T22:40:30.813Z,99901.02
2023-03-05T22:45:38.012Z,99899.60
2023-03-05T22:50:45.588Z,99899.31
2023-03-05T22:55:51.136Z,99895.93
2023-03-05T23:00:58.236Z,99896.19
2023-03-05T23:06:07.460Z,99897.13
2023-03-05T23:11:15.242Z,99894.67
2023-03-05T23:16:22.451Z,99894.27
2023-03-05T23:21:29.534Z,99896.02
2023-03-05T23:26:36.711Z,99900.89
2023-03-05T23:31:43.815Z,99896.59
2023-03-05T23:36:51.103Z,99892.31
2023-03-05T23:41:58.189Z,99888.29
2023-03-05T23:47:05.467Z,99879.17
2023-03-05T23:52:12.597Z,99874.03
2023-03-05T23:57:19.663Z,99877.20
